sensor_id;sensor_type;location;lat;lon;timestamp;P1;durP1;ratioP1;P2;durP2;ratioP2
76021;SDS011;64718;52.124;6.226;2023-02-11T00:00:34;25.67;;;10.57;;
76021;SDS011;64718;52.124;6.226;2023-02-11T00:05:29;22.70;;;10.27;;
76021;SDS011;64718;52.124;6.226;2023-02-11T00:07:56;22.52;;;9.45;;
76021;SDS011;64718;52.124;6.226;2023-02-11T00:10:24;22.08;;;9.93;;
76021;SDS011;64718;52.124;6.226;2023-02-11T00:12:50;21.38;;;9.13;;
76021;SDS011;64718;52.124;6.226;2023-02-11T00:15:17;20.23;;;9.60;;
76021;SDS011;64718;52.124;6.226;2023-02-11T00:17:45;21.00;;;9.48;;
76021;SDS011;64718;52.124;6.226;2023-02-11T00:20:11;20.67;;;8.60;;
76021;SDS011;64718;52.124;6.226;2023-02-11T00:22:38;17.55;;;9.25;;
76021;SDS011;64718;52.124;6.226;2023-02-11T00:25:05;20.60;;;9.45;;
76021;SDS011;64718;52.124;6.226;2023-02-11T00:27:33;16.92;;;8.57;;
76021;SDS011;64718;52.124;6.226;2023-02-11T00:29:59;20.85;;;8.70;;
76021;SDS011;64718;52.124;6.226;2023-02-11T00:32:26;20.75;;;8.38;;
76021;SDS011;64718;52.124;6.226;2023-02-11T00:34:53;19.38;;;7.47;;
76021;SDS011;64718;52.124;6.226;2023-02-11T00:37:19;17.08;;;8.38;;
76021;SDS011;64718;52.124;6.226;2023-02-11T00:39:46;18.25;;;8.05;;
76021;SDS011;64718;52.124;6.226;2023-02-11T00:42:14;21.33;;;9.90;;
76021;SDS011;64718;52.124;6.226;2023-02-11T00:44:42;19.52;;;6.85;;
76021;SDS011;64718;52.124;6.226;2023-02-11T00:47:09;14.80;;;7.85;;
76021;SDS011;64718;52.124;6.226;2023-02-11T00:49:35;19.90;;;8.38;;
76021;SDS011;64718;52.124;6.226;2023-02-11T00:52:04;14.10;;;6.93;;
76021;SDS011;64718;52.124;6.226;2023-02-11T00:54:30;20.17;;;8.00;;
76021;SDS011;64718;52.124;6.226;2023-02-11T00:56:57;17.38;;;7.72;;
76021;SDS011;64718;52.124;6.226;2023-02-11T00:59:23;24.58;;;7.70;;
76021;SDS011;64718;52.124;6.226;2023-02-11T01:01:51;19.58;;;7.55;;
76021;SDS011;64718;52.124;6.226;2023-02-11T01:04:18;16.30;;;7.00;;
76021;SDS011;64718;52.124;6.226;2023-02-11T01:06:44;19.70;;;9.15;;
76021;SDS011;64718;52.124;6.226;2023-02-11T01:09:11;18.23;;;8.85;;
76021;SDS011;64718;52.124;6.226;2023-02-11T01:11:37;22.20;;;7.13;;
76021;SDS011;64718;52.124;6.226;2023-02-11T01:14:04;14.93;;;6.85;;
76021;SDS011;64718;52.124;6.226;2023-02-11T01:16:30;18.40;;;7.30;;
76021;SDS011;64718;52.124;6.226;2023-02-11T01:18:58;18.92;;;7.63;;
76021;SDS011;64718;52.124;6.226;2023-02-11T01:21:25;19.73;;;7.47;;
76021;SDS011;64718;52.124;6.226;2023-02-11T01:23:52;20.50;;;7.20;;
76021;SDS011;64718;52.124;6.226;2023-02-11T01:26:18;18.35;;;7.45;;
76021;SDS011;64718;52.124;6.226;2023-02-11T01:28:45;16.13;;;7.13;;
76021;SDS011;64718;52.124;6.226;2023-02-11T01:31:11;15.82;;;7.90;;
76021;SDS011;64718;52.124;6.226;2023-02-11T01:33:38;14.25;;;6.78;;
76021;SDS011;64718;52.124;6.226;2023-02-11T01:36:06;17.20;;;7.68;;
76021;SDS011;64718;52.124;6.226;2023-02-11T01:38:33;19.63;;;8.25;;
76021;SDS011;64718;52.124;6.226;2023-02-11T01:41:01;16.75;;;7.25;;
76021;SDS011;64718;52.124;6.226;2023-02-11T01:43:30;15.25;;;6.22;;
76021;SDS011;64718;52.124;6.226;2023-02-11T01:46:01;15.93;;;6.70;;
76021;SDS011;64718;52.124;6.226;2023-02-11T01:48:37;13.00;;;7.03;;
76021;SDS011;64718;52.124;6.226;2023-02-11T01:51:10;15.63;;;7.47;;
76021;SDS011;64718;52.124;6.226;2023-02-11T01:53:39;15.60;;;7.38;;
76021;SDS011;64718;52.124;6.226;2023-02-11T01:56:24;21.02;;;7.30;;
76021;SDS011;64718;52.124;6.226;2023-02-11T01:59:10;16.15;;;6.43;;
76021;SDS011;64718;52.124;6.226;2023-02-11T02:01:40;18.25;;;7.40;;
76021;SDS011;64718;52.124;6.226;2023-02-11T02:04:11;14.18;;;6.97;;
76021;SDS011;64718;52.124;6.226;2023-02-11T02:06:44;17.38;;;7.53;;
76021;SDS011;64718;52.124;6.226;2023-02-11T02:09:15;17.13;;;7.22;;
76021;SDS011;64718;52.124;6.226;2023-02-11T02:11:47;15.18;;;7.75;;
76021;SDS011;64718;52.124;6.226;2023-02-11T02:14:13;21.58;;;6.65;;
76021;SDS011;64718;52.124;6.226;2023-02-11T02:16:40;17.85;;;6.97;;
76021;SDS011;64718;52.124;6.226;2023-02-11T02:19:13;17.42;;;7.50;;
76021;SDS011;64718;52.124;6.226;2023-02-11T02:25:11;17.00;;;7.50;;
76021;SDS011;64718;52.124;6.226;2023-02-11T02:27:51;13.45;;;6.55;;
76021;SDS011;64718;52.124;6.226;2023-02-11T02:33:33;14.88;;;6.47;;
76021;SDS011;64718;52.124;6.226;2023-02-11T02:36:12;15.73;;;6.47;;
76021;SDS011;64718;52.124;6.226;2023-02-11T02:38:45;19.40;;;7.38;;
76021;SDS011;64718;52.124;6.226;2023-02-11T02:41:19;15.38;;;6.32;;
76021;SDS011;64718;52.124;6.226;2023-02-11T02:43:49;17.23;;;6.63;;
76021;SDS011;64718;52.124;6.226;2023-02-11T02:46:17;15.25;;;5.90;;
76021;SDS011;64718;52.124;6.226;2023-02-11T02:48:47;22.83;;;8.07;;
76021;SDS011;64718;52.124;6.226;2023-02-11T02:54:18;15.93;;;6.97;;
76021;SDS011;64718;52.124;6.226;2023-02-11T02:56:55;15.88;;;6.47;;
76021;SDS011;64718;52.124;6.226;2023-02-11T02:59:33;16.55;;;6.40;;
76021;SDS011;64718;52.124;6.226;2023-02-11T03:02:09;14.15;;;6.30;;
76021;SDS011;64718;52.124;6.226;2023-02-11T03:04:46;17.73;;;6.93;;
76021;SDS011;64718;52.124;6.226;2023-02-11T03:07:19;16.90;;;6.60;;
76021;SDS011;64718;52.124;6.226;2023-02-11T03:09:53;13.60;;;5.65;;
76021;SDS011;64718;52.124;6.226;2023-02-11T03:12:24;21.10;;;6.85;;
76021;SDS011;64718;52.124;6.226;2023-02-11T03:14:55;16.70;;;5.63;;
76021;SDS011;64718;52.124;6.226;2023-02-11T03:17:21;16.00;;;6.00;;
76021;SDS011;64718;52.124;6.226;2023-02-11T03:19:51;17.85;;;6.72;;
76021;SDS011;64718;52.124;6.226;2023-02-11T03:22:19;16.98;;;6.50;;
76021;SDS011;64718;52.124;6.226;2023-02-11T03:24:51;13.75;;;5.68;;
76021;SDS011;64718;52.124;6.226;2023-02-11T03:27:22;14.18;;;7.28;;
76021;SDS011;64718;52.124;6.226;2023-02-11T03:29:54;20.85;;;6.65;;
76021;SDS011;64718;52.124;6.226;2023-02-11T03:32:27;18.30;;;7.32;;
76021;SDS011;64718;52.124;6.226;2023-02-11T03:35:01;14.65;;;6.05;;
76021;SDS011;64718;52.124;6.226;2023-02-11T03:37:33;12.88;;;6.65;;
76021;SDS011;64718;52.124;6.226;2023-02-11T03:40:05;19.40;;;7.20;;
76021;SDS011;64718;52.124;6.226;2023-02-11T03:42:35;18.40;;;6.75;;
76021;SDS011;64718;52.124;6.226;2023-02-11T03:45:07;18.85;;;6.50;;
76021;SDS011;64718;52.124;6.226;2023-02-11T03:47:37;14.55;;;6.43;;
76021;SDS011;64718;52.124;6.226;2023-02-11T03:50:10;15.63;;;6.85;;
76021;SDS011;64718;52.124;6.226;2023-02-11T03:52:39;14.55;;;5.80;;
76021;SDS011;64718;52.124;6.226;2023-02-11T03:55:08;16.40;;;6.55;;
76021;SDS011;64718;52.124;6.226;2023-02-11T03:57:38;18.42;;;6.97;;
76021;SDS011;64718;52.124;6.226;2023-02-11T04:00:05;27.13;;;7.15;;
76021;SDS011;64718;52.124;6.226;2023-02-11T04:02:34;19.30;;;7.30;;
76021;SDS011;64718;52.124;6.226;2023-02-11T04:05:02;18.92;;;8.68;;
76021;SDS011;64718;52.124;6.226;2023-02-11T04:07:30;18.98;;;7.55;;
76021;SDS011;64718;52.124;6.226;2023-02-11T04:09:56;17.65;;;7.75;;
76021;SDS011;64718;52.124;6.226;2023-02-11T04:12:23;20.35;;;8.07;;
76021;SDS011;64718;52.124;6.226;2023-02-11T04:14:50;14.68;;;7.22;;
76021;SDS011;64718;52.124;6.226;2023-02-11T04:17:17;20.88;;;7.53;;
76021;SDS011;64718;52.124;6.226;2023-02-11T04:19:43;16.80;;;7.60;;
76021;SDS011;64718;52.124;6.226;2023-02-11T04:22:10;15.73;;;8.13;;
76021;SDS011;64718;52.124;6.226;2023-02-11T04:24:38;21.15;;;8.18;;
76021;SDS011;64718;52.124;6.226;2023-02-11T04:27:05;21.02;;;8.65;;
76021;SDS011;64718;52.124;6.226;2023-02-11T04:29:31;17.98;;;7.93;;
76021;SDS011;64718;52.124;6.226;2023-02-11T04:31:58;21.58;;;9.77;;
76021;SDS011;64718;52.124;6.226;2023-02-11T04:34:24;23.80;;;8.98;;
76021;SDS011;64718;52.124;6.226;2023-02-11T04:36:51;25.02;;;9.18;;
76021;SDS011;64718;52.124;6.226;2023-02-11T04:39:17;21.05;;;9.73;;
76021;SDS011;64718;52.124;6.226;2023-02-11T04:41:45;20.63;;;9.93;;
76021;SDS011;64718;52.124;6.226;2023-02-11T04:44:12;22.33;;;9.20;;
76021;SDS011;64718;52.124;6.226;2023-02-11T04:46:39;20.73;;;9.50;;
76021;SDS011;64718;52.124;6.226;2023-02-11T04:49:05;26.27;;;10.02;;
76021;SDS011;64718;52.124;6.226;2023-02-11T04:51:32;20.17;;;9.75;;
76021;SDS011;64718;52.124;6.226;2023-02-11T04:53:58;19.38;;;9.57;;
76021;SDS011;64718;52.124;6.226;2023-02-11T04:56:25;21.17;;;10.32;;
76021;SDS011;64718;52.124;6.226;2023-02-11T04:58:53;27.92;;;11.30;;
76021;SDS011;64718;52.124;6.226;2023-02-11T05:01:19;25.90;;;10.93;;
76021;SDS011;64718;52.124;6.226;2023-02-11T05:03:46;24.20;;;11.77;;
76021;SDS011;64718;52.124;6.226;2023-02-11T05:06:12;26.98;;;11.73;;
76021;SDS011;64718;52.124;6.226;2023-02-11T05:08:39;21.92;;;11.40;;
76021;SDS011;64718;52.124;6.226;2023-02-11T05:11:06;30.20;;;12.70;;
76021;SDS011;64718;52.124;6.226;2023-02-11T05:13:33;29.30;;;10.98;;
76021;SDS011;64718;52.124;6.226;2023-02-11T05:16:01;29.83;;;11.93;;
76021;SDS011;64718;52.124;6.226;2023-02-11T05:18:28;31.13;;;13.60;;
76021;SDS011;64718;52.124;6.226;2023-02-11T05:20:54;30.05;;;12.43;;
76021;SDS011;64718;52.124;6.226;2023-02-11T05:23:21;35.00;;;13.65;;
76021;SDS011;64718;52.124;6.226;2023-02-11T05:25:48;30.85;;;12.20;;
76021;SDS011;64718;52.124;6.226;2023-02-11T05:28:14;28.08;;;12.38;;
76021;SDS011;64718;52.124;6.226;2023-02-11T05:30:41;32.17;;;14.18;;
76021;SDS011;64718;52.124;6.226;2023-02-11T05:33:08;31.52;;;12.73;;
76021;SDS011;64718;52.124;6.226;2023-02-11T05:35:35;30.02;;;13.15;;
76021;SDS011;64718;52.124;6.226;2023-02-11T05:38:02;25.42;;;13.10;;
76021;SDS011;64718;52.124;6.226;2023-02-11T05:40:28;34.60;;;14.35;;
76021;SDS011;64718;52.124;6.226;2023-02-11T05:42:55;32.22;;;15.40;;
76021;SDS011;64718;52.124;6.226;2023-02-11T05:45:21;33.55;;;15.18;;
76021;SDS011;64718;52.124;6.226;2023-02-11T05:47:48;34.17;;;15.27;;
76021;SDS011;64718;52.124;6.226;2023-02-11T05:50:16;33.25;;;14.35;;
76021;SDS011;64718;52.124;6.226;2023-02-11T05:52:42;38.13;;;14.60;;
76021;SDS011;64718;52.124;6.226;2023-02-11T05:55:09;30.73;;;14.05;;
76021;SDS011;64718;52.124;6.226;2023-02-11T05:57:35;34.63;;;15.63;;
76021;SDS011;64718;52.124;6.226;2023-02-11T06:00:02;34.72;;;15.43;;
76021;SDS011;64718;52.124;6.226;2023-02-11T06:02:29;34.03;;;15.63;;
76021;SDS011;64718;52.124;6.226;2023-02-11T06:04:56;33.03;;;14.65;;
76021;SDS011;64718;52.124;6.226;2023-02-11T06:07:24;39.05;;;15.95;;
76021;SDS011;64718;52.124;6.226;2023-02-11T06:09:51;35.60;;;14.77;;
76021;SDS011;64718;52.124;6.226;2023-02-11T06:12:17;36.47;;;15.48;;
76021;SDS011;64718;52.124;6.226;2023-02-11T06:14:44;38.53;;;16.00;;
76021;SDS011;64718;52.124;6.226;2023-02-11T06:17:10;30.90;;;14.38;;
76021;SDS011;64718;52.124;6.226;2023-02-11T06:19:37;36.22;;;15.45;;
76021;SDS011;64718;52.124;6.226;2023-02-11T06:22:04;39.60;;;16.40;;
76021;SDS011;64718;52.124;6.226;2023-02-11T06:24:31;41.95;;;16.27;;
76021;SDS011;64718;52.124;6.226;2023-02-11T06:26:58;32.63;;;14.65;;
76021;SDS011;64718;52.124;6.226;2023-02-11T06:29:25;37.88;;;15.73;;
76021;SDS011;64718;52.124;6.226;2023-02-11T06:31:51;39.15;;;16.67;;
76021;SDS011;64718;52.124;6.226;2023-02-11T06:34:18;40.83;;;18.55;;
76021;SDS011;64718;52.124;6.226;2023-02-11T06:36:44;41.42;;;15.65;;
76021;SDS011;64718;52.124;6.226;2023-02-11T06:39:11;39.65;;;17.52;;
76021;SDS011;64718;52.124;6.226;2023-02-11T06:41:39;42.60;;;17.50;;
76021;SDS011;64718;52.124;6.226;2023-02-11T06:44:06;45.67;;;17.05;;
76021;SDS011;64718;52.124;6.226;2023-02-11T06:46:32;41.00;;;16.27;;
76021;SDS011;64718;52.124;6.226;2023-02-11T06:48:59;37.90;;;16.67;;
76021;SDS011;64718;52.124;6.226;2023-02-11T06:51:25;46.30;;;17.50;;
76021;SDS011;64718;52.124;6.226;2023-02-11T06:53:52;40.65;;;16.42;;
76021;SDS011;64718;52.124;6.226;2023-02-11T06:56:20;35.45;;;16.45;;
76021;SDS011;64718;52.124;6.226;2023-02-11T06:58:50;37.25;;;16.55;;
76021;SDS011;64718;52.124;6.226;2023-02-11T07:01:18;39.28;;;17.35;;
76021;SDS011;64718;52.124;6.226;2023-02-11T07:03:45;45.95;;;18.27;;
76021;SDS011;64718;52.124;6.226;2023-02-11T07:06:12;37.95;;;17.20;;
76021;SDS011;64718;52.124;6.226;2023-02-11T07:11:10;43.10;;;17.15;;
76021;SDS011;64718;52.124;6.226;2023-02-11T07:13:38;43.30;;;17.58;;
76021;SDS011;64718;52.124;6.226;2023-02-11T07:16:06;39.95;;;18.10;;
76021;SDS011;64718;52.124;6.226;2023-02-11T07:18:34;35.45;;;17.67;;
76021;SDS011;64718;52.124;6.226;2023-02-11T07:21:02;40.17;;;17.83;;
76021;SDS011;64718;52.124;6.226;2023-02-11T07:23:30;47.67;;;19.02;;
76021;SDS011;64718;52.124;6.226;2023-02-11T07:25:56;42.25;;;16.13;;
76021;SDS011;64718;52.124;6.226;2023-02-11T07:28:23;38.80;;;18.23;;
76021;SDS011;64718;52.124;6.226;2023-02-11T07:30:49;40.47;;;18.25;;
76021;SDS011;64718;52.124;6.226;2023-02-11T07:33:17;39.05;;;17.42;;
76021;SDS011;64718;52.124;6.226;2023-02-11T07:35:44;39.10;;;17.40;;
76021;SDS011;64718;52.124;6.226;2023-02-11T07:38:10;42.67;;;17.90;;
76021;SDS011;64718;52.124;6.226;2023-02-11T07:40:37;44.22;;;20.05;;
76021;SDS011;64718;52.124;6.226;2023-02-11T07:43:03;42.20;;;17.05;;
76021;SDS011;64718;52.124;6.226;2023-02-11T07:45:30;50.67;;;19.27;;
76021;SDS011;64718;52.124;6.226;2023-02-11T07:47:56;40.22;;;18.05;;
76021;SDS011;64718;52.124;6.226;2023-02-11T07:50:24;40.33;;;16.90;;
76021;SDS011;64718;52.124;6.226;2023-02-11T07:52:50;41.45;;;18.88;;
76021;SDS011;64718;52.124;6.226;2023-02-11T07:55:17;45.75;;;18.02;;
76021;SDS011;64718;52.124;6.226;2023-02-11T07:57:43;43.53;;;17.30;;
76021;SDS011;64718;52.124;6.226;2023-02-11T08:00:10;42.58;;;16.17;;
76021;SDS011;64718;52.124;6.226;2023-02-11T08:02:38;43.42;;;17.85;;
76021;SDS011;64718;52.124;6.226;2023-02-11T08:05:05;40.20;;;16.95;;
76021;SDS011;64718;52.124;6.226;2023-02-11T08:07:33;41.08;;;15.75;;
76021;SDS011;64718;52.124;6.226;2023-02-11T08:09:59;45.17;;;16.10;;
76021;SDS011;64718;52.124;6.226;2023-02-11T08:12:26;40.30;;;17.10;;
76021;SDS011;64718;52.124;6.226;2023-02-11T08:14:53;39.47;;;16.67;;
76021;SDS011;64718;52.124;6.226;2023-02-11T08:17:20;39.35;;;16.85;;
76021;SDS011;64718;52.124;6.226;2023-02-11T08:19:46;41.95;;;16.63;;
76021;SDS011;64718;52.124;6.226;2023-02-11T08:22:13;42.38;;;16.10;;
76021;SDS011;64718;52.124;6.226;2023-02-11T08:24:41;35.65;;;17.15;;
76021;SDS011;64718;52.124;6.226;2023-02-11T08:27:08;41.78;;;17.60;;
76021;SDS011;64718;52.124;6.226;2023-02-11T08:29:34;44.35;;;20.45;;
76021;SDS011;64718;52.124;6.226;2023-02-11T08:32:01;39.47;;;16.52;;
76021;SDS011;64718;52.124;6.226;2023-02-11T08:34:27;40.40;;;17.40;;
76021;SDS011;64718;52.124;6.226;2023-02-11T08:36:54;50.03;;;17.75;;
76021;SDS011;64718;52.124;6.226;2023-02-11T08:39:21;38.65;;;16.88;;
76021;SDS011;64718;52.124;6.226;2023-02-11T08:41:50;39.35;;;16.75;;
76021;SDS011;64718;52.124;6.226;2023-02-11T08:44:18;44.22;;;16.60;;
76021;SDS011;64718;52.124;6.226;2023-02-11T08:46:46;42.13;;;16.58;;
76021;SDS011;64718;52.124;6.226;2023-02-11T08:49:12;44.30;;;17.40;;
76021;SDS011;64718;52.124;6.226;2023-02-11T08:51:39;36.42;;;17.02;;
76021;SDS011;64718;52.124;6.226;2023-02-11T08:54:06;35.10;;;16.95;;
76021;SDS011;64718;52.124;6.226;2023-02-11T08:56:34;36.97;;;16.02;;
76021;SDS011;64718;52.124;6.226;2023-02-11T08:59:02;43.72;;;18.08;;
76021;SDS011;64718;52.124;6.226;2023-02-11T09:01:29;40.00;;;16.23;;
76021;SDS011;64718;52.124;6.226;2023-02-11T09:03:56;35.70;;;15.80;;
76021;SDS011;64718;52.124;6.226;2023-02-11T09:06:24;41.05;;;18.35;;
76021;SDS011;64718;52.124;6.226;2023-02-11T09:08:53;33.75;;;16.25;;
76021;SDS011;64718;52.124;6.226;2023-02-11T09:11:21;44.90;;;16.70;;
76021;SDS011;64718;52.124;6.226;2023-02-11T09:13:50;38.72;;;16.95;;
76021;SDS011;64718;52.124;6.226;2023-02-11T09:16:19;32.05;;;16.80;;
76021;SDS011;64718;52.124;6.226;2023-02-11T09:18:48;38.55;;;15.90;;
76021;SDS011;64718;52.124;6.226;2023-02-11T09:21:16;40.53;;;17.23;;
76021;SDS011;64718;52.124;6.226;2023-02-11T09:23:43;38.65;;;17.73;;
76021;SDS011;64718;52.124;6.226;2023-02-11T09:26:12;41.33;;;16.92;;
76021;SDS011;64718;52.124;6.226;2023-02-11T09:28:41;37.10;;;15.38;;
76021;SDS011;64718;52.124;6.226;2023-02-11T09:31:08;36.47;;;15.23;;
76021;SDS011;64718;52.124;6.226;2023-02-11T09:33:37;39.65;;;16.25;;
76021;SDS011;64718;52.124;6.226;2023-02-11T09:36:11;35.30;;;18.02;;
76021;SDS011;64718;52.124;6.226;2023-02-11T09:38:39;34.20;;;17.42;;
76021;SDS011;64718;52.124;6.226;2023-02-11T09:41:11;37.75;;;16.90;;
76021;SDS011;64718;52.124;6.226;2023-02-11T09:43:50;39.13;;;15.25;;
76021;SDS011;64718;52.124;6.226;2023-02-11T09:46:19;36.15;;;16.30;;
76021;SDS011;64718;52.124;6.226;2023-02-11T09:51:17;31.38;;;13.80;;
76021;SDS011;64718;52.124;6.226;2023-02-11T09:53:49;31.30;;;15.65;;
76021;SDS011;64718;52.124;6.226;2023-02-11T09:56:21;33.10;;;14.77;;
76021;SDS011;64718;52.124;6.226;2023-02-11T09:58:49;31.88;;;15.48;;
76021;SDS011;64718;52.124;6.226;2023-02-11T10:01:20;30.40;;;14.38;;
76021;SDS011;64718;52.124;6.226;2023-02-11T10:04:00;30.63;;;14.23;;
76021;SDS011;64718;52.124;6.226;2023-02-11T10:06:36;31.35;;;13.18;;
76021;SDS011;64718;52.124;6.226;2023-02-11T10:09:09;30.42;;;13.63;;
76021;SDS011;64718;52.124;6.226;2023-02-11T10:11:54;30.60;;;13.52;;
76021;SDS011;64718;52.124;6.226;2023-02-11T10:14:35;30.50;;;13.48;;
76021;SDS011;64718;52.124;6.226;2023-02-11T10:17:28;29.85;;;13.15;;
76021;SDS011;64718;52.124;6.226;2023-02-11T10:20:07;28.65;;;12.88;;
76021;SDS011;64718;52.124;6.226;2023-02-11T10:22:44;25.45;;;13.32;;
76021;SDS011;64718;52.124;6.226;2023-02-11T10:25:16;25.90;;;12.35;;
76021;SDS011;64718;52.124;6.226;2023-02-11T10:27:45;28.75;;;12.70;;
76021;SDS011;64718;52.124;6.226;2023-02-11T10:30:16;29.83;;;13.00;;
76021;SDS011;64718;52.124;6.226;2023-02-11T10:32:47;28.05;;;13.65;;
76021;SDS011;64718;52.124;6.226;2023-02-11T10:35:20;24.58;;;12.68;;
76021;SDS011;64718;52.124;6.226;2023-02-11T10:37:48;28.65;;;13.38;;
76021;SDS011;64718;52.124;6.226;2023-02-11T10:40:15;25.45;;;12.27;;
76021;SDS011;64718;52.124;6.226;2023-02-11T10:42:44;25.77;;;12.70;;
76021;SDS011;64718;52.124;6.226;2023-02-11T10:45:15;23.55;;;11.55;;
76021;SDS011;64718;52.124;6.226;2023-02-11T10:47:44;23.60;;;11.75;;
76021;SDS011;64718;52.124;6.226;2023-02-11T10:50:16;29.77;;;12.40;;
76021;SDS011;64718;52.124;6.226;2023-02-11T10:52:47;23.83;;;12.18;;
76021;SDS011;64718;52.124;6.226;2023-02-11T10:55:15;21.73;;;11.80;;
76021;SDS011;64718;52.124;6.226;2023-02-11T10:57:48;23.77;;;12.05;;
76021;SDS011;64718;52.124;6.226;2023-02-11T11:00:32;22.50;;;12.05;;
76021;SDS011;64718;52.124;6.226;2023-02-11T11:03:02;21.35;;;11.95;;
76021;SDS011;64718;52.124;6.226;2023-02-11T11:05:31;18.88;;;11.55;;
76021;SDS011;64718;52.124;6.226;2023-02-11T11:08:03;24.58;;;11.40;;
76021;SDS011;64718;52.124;6.226;2023-02-11T11:10:38;24.80;;;12.77;;
76021;SDS011;64718;52.124;6.226;2023-02-11T11:16:07;19.45;;;11.32;;
76021;SDS011;64718;52.124;6.226;2023-02-11T11:18:49;23.50;;;11.25;;
76021;SDS011;64718;52.124;6.226;2023-02-11T11:21:18;20.98;;;11.15;;
76021;SDS011;64718;52.124;6.226;2023-02-11T11:23:50;22.90;;;13.68;;
76021;SDS011;64718;52.124;6.226;2023-02-11T11:26:19;23.67;;;12.40;;
76021;SDS011;64718;52.124;6.226;2023-02-11T11:28:52;23.85;;;12.07;;
76021;SDS011;64718;52.124;6.226;2023-02-11T11:31:23;23.75;;;12.23;;
76021;SDS011;64718;52.124;6.226;2023-02-11T11:33:52;21.80;;;11.85;;
76021;SDS011;64718;52.124;6.226;2023-02-11T11:36:23;21.08;;;12.25;;
76021;SDS011;64718;52.124;6.226;2023-02-11T11:38:59;18.73;;;10.75;;
76021;SDS011;64718;52.124;6.226;2023-02-11T11:41:28;21.83;;;11.75;;
76021;SDS011;64718;52.124;6.226;2023-02-11T11:43:58;21.00;;;11.18;;
76021;SDS011;64718;52.124;6.226;2023-02-11T11:46:28;21.08;;;11.45;;
76021;SDS011;64718;52.124;6.226;2023-02-11T11:48:59;20.08;;;11.15;;
76021;SDS011;64718;52.124;6.226;2023-02-11T11:51:47;23.42;;;11.70;;
76021;SDS011;64718;52.124;6.226;2023-02-11T11:54:23;24.63;;;11.43;;
76021;SDS011;64718;52.124;6.226;2023-02-11T11:56:54;19.98;;;10.70;;
76021;SDS011;64718;52.124;6.226;2023-02-11T11:59:25;20.88;;;11.90;;
76021;SDS011;64718;52.124;6.226;2023-02-11T12:01:58;20.15;;;11.38;;
76021;SDS011;64718;52.124;6.226;2023-02-11T12:04:40;20.95;;;10.68;;
76021;SDS011;64718;52.124;6.226;2023-02-11T12:07:16;20.98;;;10.43;;
76021;SDS011;64718;52.124;6.226;2023-02-11T12:10:03;21.20;;;10.65;;
76021;SDS011;64718;52.124;6.226;2023-02-11T12:12:50;20.75;;;11.52;;
76021;SDS011;64718;52.124;6.226;2023-02-11T12:15:24;19.05;;;11.10;;
76021;SDS011;64718;52.124;6.226;2023-02-11T12:18:03;19.42;;;10.00;;
76021;SDS011;64718;52.124;6.226;2023-02-11T12:20:44;18.52;;;11.90;;
76021;SDS011;64718;52.124;6.226;2023-02-11T12:23:27;18.83;;;9.88;;
76021;SDS011;64718;52.124;6.226;2023-02-11T12:28:39;17.00;;;9.98;;
76021;SDS011;64718;52.124;6.226;2023-02-11T12:31:21;17.98;;;9.40;;
76021;SDS011;64718;52.124;6.226;2023-02-11T12:37:06;17.90;;;9.68;;
76021;SDS011;64718;52.124;6.226;2023-02-11T12:39:47;15.65;;;10.50;;
76021;SDS011;64718;52.124;6.226;2023-02-11T12:45:31;14.40;;;8.82;;
76021;SDS011;64718;52.124;6.226;2023-02-11T12:48:11;16.23;;;9.07;;
76021;SDS011;64718;52.124;6.226;2023-02-11T12:50:49;17.23;;;9.43;;
76021;SDS011;64718;52.124;6.226;2023-02-11T12:53:30;16.15;;;9.27;;
76021;SDS011;64718;52.124;6.226;2023-02-11T12:56:10;13.00;;;7.95;;
76021;SDS011;64718;52.124;6.226;2023-02-11T12:58:43;15.63;;;8.60;;
76021;SDS011;64718;52.124;6.226;2023-02-11T13:01:15;15.55;;;8.57;;
76021;SDS011;64718;52.124;6.226;2023-02-11T13:03:46;15.10;;;8.63;;
76021;SDS011;64718;52.124;6.226;2023-02-11T13:06:17;15.02;;;9.40;;
76021;SDS011;64718;52.124;6.226;2023-02-11T13:08:48;16.08;;;8.18;;
76021;SDS011;64718;52.124;6.226;2023-02-11T13:11:19;15.23;;;8.63;;
76021;SDS011;64718;52.124;6.226;2023-02-11T13:13:51;15.57;;;8.10;;
76021;SDS011;64718;52.124;6.226;2023-02-11T13:16:24;12.20;;;7.50;;
76021;SDS011;64718;52.124;6.226;2023-02-11T13:19:13;13.15;;;8.80;;
76021;SDS011;64718;52.124;6.226;2023-02-11T13:21:49;15.27;;;7.93;;
76021;SDS011;64718;52.124;6.226;2023-02-11T13:24:28;13.95;;;7.95;;
76021;SDS011;64718;52.124;6.226;2023-02-11T13:50:37;9.60;;;6.25;;
76021;SDS011;64718;52.124;6.226;2023-02-11T13:53:11;12.40;;;8.32;;
76021;SDS011;64718;52.124;6.226;2023-02-11T13:55:38;9.82;;;5.68;;
76021;SDS011;64718;52.124;6.226;2023-02-11T13:58:17;9.40;;;6.40;;
76021;SDS011;64718;52.124;6.226;2023-02-11T14:00:58;12.35;;;6.35;;
76021;SDS011;64718;52.124;6.226;2023-02-11T14:03:31;10.15;;;6.90;;
76021;SDS011;64718;52.124;6.226;2023-02-11T14:06:20;11.10;;;6.53;;
76021;SDS011;64718;52.124;6.226;2023-02-11T14:12:16;10.27;;;6.28;;
76021;SDS011;64718;52.124;6.226;2023-02-11T14:21:37;9.70;;;6.88;;
76021;SDS011;64718;52.124;6.226;2023-02-11T14:27:14;10.18;;;6.78;;
76021;SDS011;64718;52.124;6.226;2023-02-11T14:29:49;11.73;;;6.35;;
76021;SDS011;64718;52.124;6.226;2023-02-11T14:32:32;8.90;;;5.57;;
76021;SDS011;64718;52.124;6.226;2023-02-11T14:35:11;12.55;;;6.72;;
76021;SDS011;64718;52.124;6.226;2023-02-11T14:37:48;10.60;;;6.57;;
76021;SDS011;64718;52.124;6.226;2023-02-11T14:40:25;8.43;;;6.28;;
76021;SDS011;64718;52.124;6.226;2023-02-11T14:42:56;9.70;;;5.22;;
76021;SDS011;64718;52.124;6.226;2023-02-11T14:45:33;9.18;;;5.80;;
76021;SDS011;64718;52.124;6.226;2023-02-11T14:48:02;9.15;;;6.30;;
76021;SDS011;64718;52.124;6.226;2023-02-11T14:50:33;10.80;;;6.25;;
76021;SDS011;64718;52.124;6.226;2023-02-11T14:53:10;8.68;;;5.93;;
76021;SDS011;64718;52.124;6.226;2023-02-11T14:55:41;9.63;;;6.15;;
76021;SDS011;64718;52.124;6.226;2023-02-11T14:58:12;7.70;;;5.20;;
76021;SDS011;64718;52.124;6.226;2023-02-11T15:00:47;9.52;;;6.00;;
76021;SDS011;64718;52.124;6.226;2023-02-11T15:03:29;9.48;;;5.85;;
76021;SDS011;64718;52.124;6.226;2023-02-11T15:05:58;7.68;;;5.20;;
76021;SDS011;64718;52.124;6.226;2023-02-11T15:08:28;8.50;;;5.70;;
76021;SDS011;64718;52.124;6.226;2023-02-11T15:10:55;8.02;;;5.65;;
76021;SDS011;64718;52.124;6.226;2023-02-11T15:13:24;8.38;;;5.55;;
76021;SDS011;64718;52.124;6.226;2023-02-11T15:15:57;8.65;;;5.63;;
76021;SDS011;64718;52.124;6.226;2023-02-11T15:18:29;8.75;;;4.80;;
76021;SDS011;64718;52.124;6.226;2023-02-11T15:21:00;8.38;;;6.13;;
76021;SDS011;64718;52.124;6.226;2023-02-11T15:23:28;10.35;;;6.68;;
76021;SDS011;64718;52.124;6.226;2023-02-11T15:25:56;10.93;;;6.20;;
76021;SDS011;64718;52.124;6.226;2023-02-11T15:28:27;8.80;;;6.30;;
76021;SDS011;64718;52.124;6.226;2023-02-11T15:30:56;7.65;;;5.28;;
76021;SDS011;64718;52.124;6.226;2023-02-11T15:33:23;13.90;;;6.32;;
76021;SDS011;64718;52.124;6.226;2023-02-11T15:35:50;8.40;;;5.80;;
76021;SDS011;64718;52.124;6.226;2023-02-11T15:38:17;10.70;;;6.22;;
76021;SDS011;64718;52.124;6.226;2023-02-11T15:40:51;7.10;;;5.65;;
76021;SDS011;64718;52.124;6.226;2023-02-11T15:43:19;10.10;;;7.45;;
76021;SDS011;64718;52.124;6.226;2023-02-11T15:45:52;10.07;;;6.15;;
76021;SDS011;64718;52.124;6.226;2023-02-11T15:48:24;7.55;;;5.07;;
76021;SDS011;64718;52.124;6.226;2023-02-11T15:50:57;8.45;;;4.80;;